Tiempo atmosférico en la estación meteorológica de Utiel, València/Valencia (761 m.)



Fecha
DESCASC
Temp. máxima en grados centígrados (hora)
DESCASC
Temp. mínima en grados centígrados (hora)
DESCASC
Temp. media en grados centígrados
DESCASC
Racha de viento máxima en m/sg (hora)
DESCASC
Velocidad máxima media en intervalos de 10 minutos(hora)
DESCASC
Precipitaciones diarias en mm
DESCASC
Precipitaciones de 00:00 a 06:00 en mm
DESCASC
Precipitaciones de 06:00 a 12:00 en mm
DESCASC
Precipitaciones de 12:00 a 18:00 en mm
DESCASC
Precipitaciones de 18:00 a 24:00 en mm
DESCASC
15-08-2019 35.6 (17:00) 14.7 (07:20) 25.1 10.56 (18:10) 7.22 (18:10) 0 0 0 0 0
14-08-2019 34.5 (18:00) 14 (00:00) 24.3 9.72 (17:30) 5.28 (19:30) 0 0 0 0 0
13-08-2019 27.9 (17:10) 17.4 (00:00) 22.6 8.89 (17:00) 5.83 (19:30) 0 0 0 0 0
12-08-2019 31.1 (16:30) 14.4 (00:00) 22.8 10.83 (16:30) 6.94 (18:50) 0 0 0 0 0
11-08-2019 33.3 (18:20) 17.5 (00:00) 25.4 12.22 (17:50) 7.22 (13:40) 0 0 0 0 0
10-08-2019 35.3 (17:00) 16.7 (00:00) 26 10 (20:10) 6.67 (20:10) 0 0 0 0 0
09-08-2019 35.3 (18:00) 14.5 (00:00) 24.9 13.61 (15:50) 7.5 (14:20) 0 0 0 0 0
08-08-2019 35.4 (17:50) 16.8 (00:00) 26.1 9.72 (18:20) 5.28 (13:00) 0 0 0 0 0
07-08-2019 34.6 (16:50) 15.9 (00:00) 25.2 11.39 (15:50) 6.94 (14:30) 0 0 0 0 0
06-08-2019 37.3 (16:50) 17.1 (00:00) 27.2 10.56 (17:20) 5.56 (16:10) 0 0 0 0 0
05-08-2019 36.7 (18:00) 16.8 (00:00) 26.8 9.72 (18:50) 6.67 (20:20) 0 0 0 0 0
04-08-2019 37 (17:00) 16.7 (00:00) 26.9 10.83 (18:50) 6.67 (19:50) 0 0 0 0 0
03-08-2019 35.5 (16:40) 15.4 (00:00) 25.4 10.28 (18:40) 7.22 (18:40) 0 0 0 0 0
02-08-2019 34.3 (14:50) 15.7 (00:00) 25 11.94 (16:40) 7.22 (16:30) 0 0 0 0 0
01-08-2019 34.3 (17:30) 13.5 (00:00) 23.9 9.44 (17:30) 6.11 (19:40) 0 0 0 0 0
31-07-2019 26.7 (14:40) 16.6 (00:00) 21.7 11.39 (15:00) 7.5 (15:10) 0 0 0 0 0
30-07-2019 32.6 (15:40) 14.7 (00:00) 23.6 11.39 (18:00) 7.78 (18:00) 0 0 0 0 0
29-07-2019 34.1 (17:30) 14.7 (00:00) 24.4 9.17 (16:20) 5.56 (19:50) 0 0 0 0 0
28-07-2019 31.5 (18:20) 14 (00:00) 22.8 11.11 (09:10) 7.5 (09:10) 0 0 0 0 0
27-07-2019 28.9 (17:10) 14 (00:00) 21.4 15 (16:10) 9.44 (16:10) 0 0 0 0 0
26-07-2019 33.4 (16:30) 17 (00:00) 25.2 12.78 (16:20) 6.67 (18:50) 0 0 0 0 0
25-07-2019 36.4 (16:00) 15.8 (00:00) 26.1 12.22 (19:10) 7.5 (18:10) 0 0 0 0 0
24-07-2019 35.8 (15:20) 18.3 (00:00) 27 10.56 (16:10) 6.67 (18:20) 0 0 0 0 0
23-07-2019 35.1 (15:40) 16 (00:00) 25.5 11.39 (18:40) 6.67 (18:40) 0 0 0 0 0
22-07-2019 32.4 (14:20) 16.5 (00:00) 24.5 10.83 (15:50) 6.39 (17:20) 0 0 0 0 0
21-07-2019 31.1 (16:30) 17.4 (00:00) 24.3 11.11 (17:20) 6.67 (15:50) 0 0 0 0 0
20-07-2019 34.7 (15:00) 15.4 (06:10) 25.1 11.67 (17:40) 7.78 (17:40) 0 0 0 0 0
19-07-2019 33.9 (16:10) 16.7 (00:00) 25.3 10.28 (17:40) 6.11 (18:20) 0 0 0 0 0

Gráficas

Temp. máximas Temp. mínimas Temp. medias Precipitaciones Rachas de viento máximas Velocidades máximas media en intervalos de 10 minutos

Datos horarios

Fecha y hora oficial Temperatura (ºC) Velocidad del viento (km/h) Dirección del viento Racha (km/h) Dirección de racha Precipitación (mm) Presión (hPa) Tendencia (hPa) Humedad (%)
2019-08-17 23:00:00 24.9 7 Noroeste 10 Oeste 0 929.6 1.6 62
2019-08-17 22:00:00 26.9 4 Sudeste 27 Sudeste 0 929.2 1.1 48
2019-08-17 21:00:00 28.8 17 Sudeste 32 Sudeste 0 928.3 -0.2 43
2019-08-17 20:00:00 31.4 21 Sudeste 36 Sudeste 0 928 -0.9 33
2019-08-17 19:00:00 36.8 9 Sudoeste 24 Sur 0 928.1 -1.4 12
2019-08-17 18:00:00 37.3 12 Sudoeste 35 Oeste 0 928.5 -1.5 11
2019-08-17 17:00:00 37.2 11 Sudoeste 29 Oeste 0 928.9 -1.5 12
2019-08-17 16:00:00 36.7 14 Sur 30 Sudoeste 0 929.5 -1.7 13
2019-08-17 15:00:00 36.3 16 Sudoeste 30 Sudoeste 0 930 -1.6 14
2019-08-17 14:00:00 35.2 12 Sur 21 Sur 0 930.4 -1.4 22
2019-08-17 13:00:00 33 7 Sur 15 Sur 0 931.2 -0.7 28
2019-08-17 12:00:00 30.6 5 Sur 14 Sudeste 0 931.6 -0.2 34
2019-08-17 11:00:00 27.8 4 Sudoeste 8 Sur 0 931.8 0.3 43
2019-08-17 10:00:00 24.4 3 Sudeste 7 Sur 0 931.9 0.8 56
2019-08-17 09:00:00 18.8 3 Noroeste 9 Noroeste 0 931.8 0.8 76
2019-08-17 08:00:00 15.6 5 Noroeste 12 Noroeste 0 931.5 0.5 88
2019-08-17 07:00:00 15.7 9 Noroeste 12 Noroeste 0 931.1 0 89
2019-08-17 06:00:00 16.6 4 Noroeste 9 Noroeste 0 931 -0.4 89
2019-08-17 05:00:00 17.3 6 Norte 12 Noroeste 0 931 -0.9 87
2019-08-17 04:00:00 18.5 8 Norte 13 Noroeste 0 931.1 -1.2 89
2019-08-17 03:00:00 19 10 Noroeste 14 Noroeste 0 931.4 -0.8 89
2019-08-17 02:00:00 19.5 8 Noroeste 13 Noroeste 0 931.9 -0.3 86
2019-08-17 01:00:00 20.4 10 Noroeste 16 Noroeste 0 932.3 0.8 83
2019-08-17 00:00:00 21.1 8 Noroeste 12 Noroeste 0 932.2 1.5 79
2019-08-16 23:00:00 22.8 6 Oeste 12 Sudeste 0 932.2 2.2 70
2019-08-16 22:00:00 24.7 8 Sudeste 17 Sudeste 0 931.5 1.8 62
2019-08-16 21:00:00 26.5 12 Sudeste 31 Sudeste 0 930.7 0.7 56
2019-08-16 20:00:00 29.1 18 Sudeste 36 Sudeste 0 930 -0.5 47
2019-08-16 19:00:00 31.3 20 Sudeste 35 Sudeste 0 929.7 -1.6 38
2019-08-16 18:00:00 34.1 16 Sudeste 27 Oeste 0 930 -2 29
2019-08-16 17:00:00 35.3 11 Sudoeste 24 Sudoeste 0 930.5 -2 16
2019-08-16 16:00:00 34.4 10 Sudoeste 22 Sur 0 931.3 -1.8 20
2019-08-16 15:00:00 32.7 8 Sudeste 19 Sur 0 932 -1.5 23
2019-08-16 14:00:00 30.8 9 Sudeste 22 Sudeste 0 932.5 -1.4 27
2019-08-16 13:00:00 29.3 9 Sur 21 Sudeste 0 933.1 -0.7 32
2019-08-16 12:00:00 27.3 7 Sur 20 Sur 0 933.5 -0.1 37
2019-08-16 11:00:00 25 8 Sur 15 Sudeste 0 933.9 0.5 50
2019-08-16 10:00:00 22.9 3 Sudoeste 6 Sur 0 933.8 0.7 50
2019-08-16 09:00:00 18.7 3 Noroeste 8 Noroeste 0 933.6 0.9 70
2019-08-16 08:00:00 15.2 4 Noroeste 7 Nordeste 0 933.4 0.6 81
2019-08-16 07:00:00 16 4 Nordeste 9 Noroeste 0 933.1 0.1 77
2019-08-16 06:00:00 17.1 6 Noroeste 14 Noroeste 0 932.7 -0.7 80
2019-08-16 05:00:00 17.4 9 Noroeste 14 Noroeste 0 932.8 -0.8 80
2019-08-16 04:00:00 17.9 8 Noroeste 12 Noroeste 0 933 -0.5 79
2019-08-16 03:00:00 18.4 8 Noroeste 11 Noroeste 0 933.4 -0.2 79
2019-08-16 02:00:00 19.1 7 Noroeste 12 Noroeste 0 933.6 0 76
2019-08-16 01:00:00 19.7 8 Noroeste 12 Noroeste 0 933.5 0.4 73
2019-08-16 00:00:00 21.5 3 Nordeste 10 Norte 0 933.6 1.4 63
2019-08-15 23:00:00 22.8 7 Este 14 Este 0 933.6 2.1 60
2019-08-15 22:00:00 23.1 8 Este 22 Este 0 933.1 2.5 61
2019-08-15 21:00:00 24.8 14 Nordeste 28 Nordeste 0 932.2 1.7 56
2019-08-15 20:00:00 27.7 18 Sudeste 37 Sudeste 0 931.5 0.7 48
2019-08-15 19:00:00 29.8 25 Este 38 Sudeste 0 930.6 -0.7 45
2019-08-15 18:00:00 31.9 23 Sudeste 37 Sudeste 0 930.5 -1.5 36
2019-08-15 17:00:00 35.5 11 Sur 27 Sur 0 930.8 -2 19
2019-08-15 16:00:00 34.9 11 Sur 26 Sudoeste 0 931.3 -1.9 15
2019-08-15 15:00:00 34.2 10 Sudoeste 28 Oeste 0 932 -1.6 16
2019-08-15 14:00:00 33 4 Sudeste 18 Sudeste 0 932.8 -0.9 21
2019-08-15 13:00:00 30.9 5 Este 18 Sur 0 933.2 -0.5 26
2019-08-15 12:00:00 29.3 7 Sur 15 Sur 0 933.6 -0.1 32
2019-08-15 11:00:00 27.3 4 Sudeste 8 Sur 0 933.7 0.3 36
2019-08-15 10:00:00 23.9 4 Noroeste 8 Norte 0 933.7 0.7 44
2019-08-15 09:00:00 19.3 6 Norte 11 Norte 0 933.7 1 58
2019-08-15 08:00:00 14.9 6 Noroeste 11 Noroeste 0 933.4 0.6 76
2019-08-15 07:00:00 15 8 Norte 12 Noroeste 0 933 0.1 80
2019-08-15 06:00:00 16.4 10 Noroeste 13 Noroeste 0 932.7 -0.5 80
2019-08-15 05:00:00 17.3 4 Noroeste 14 Norte 0 932.8 -0.7 78
2019-08-15 04:00:00 17.7 9 Noroeste 13 Noroeste 0 932.9 -0.6 76
2019-08-15 03:00:00 18 9 Noroeste 12 Noroeste 0 933.2 -0.4 79
2019-08-15 02:00:00 18.7 8 Noroeste 15 Noroeste 0 933.5 0 78
2019-08-15 01:00:00 19.3 9 Noroeste 14 Noroeste 0 933.5 0.8 75
2019-08-15 00:00:00 20.3 8 Noroeste 11 Noroeste 0 933.6 1.9 72
2019-08-14 23:00:00 22.5 4 Sur 10 Este 0 933.5 2.7 61
2019-08-14 22:00:00 23.9 8 Sur 22 Sudeste 0 932.7 2 57
2019-08-14 21:00:00 26.6 14 Sudeste 25 Sudeste 0 931.7 1 47
2019-08-14 20:00:00 32.4 14 Oeste 32 Oeste 0 930.8 -0.2 14
2019-08-14 19:00:00 33.7 16 Oeste 30 Oeste 0 930.7 -0.7 13
2019-08-14 18:00:00 34 12 Oeste 35 Oeste 0 930.7 -1.8 13
2019-08-14 17:00:00 33.5 13 Sur 27 Sur 0 931 -2.2 14
2019-08-14 16:00:00 32.8 14 Sudoeste 33 Oeste 0 931.4 -2.3 16
2019-08-14 15:00:00 31.9 11 Sudoeste 31 Sudoeste 0 932.5 -1.5 19
2019-08-14 14:00:00 30.6 10 Sudoeste 22 Oeste 0 933.2 -1.1 20
2019-08-14 13:00:00 29 9 Sudoeste 20 Sudoeste 0 933.7 -0.6 30
2019-08-14 12:00:00 26.4 6 Sudoeste 14 Oeste 0 934 -0.2 46
2019-08-14 11:00:00 24.4 4 Sur 9 Sur 0 934.3 0.3 56
2019-08-14 10:00:00 21.5 4 Noroeste 9 Norte 0 934.3 0.5 68
2019-08-14 09:00:00 17.5 5 Norte 9 Noroeste 0 934.2 0.5 83
2019-08-14 08:00:00 14.1 7 Norte 8 Norte 0 934 0.2 91
2019-08-14 07:00:00 14.4 5 Noroeste 6 Noroeste 0 933.8 -0.2 90
2019-08-14 06:00:00 15.2 4 Noroeste 5 Norte 0 933.7 -0.4 90
2019-08-14 05:00:00 16 4 Norte 8 Oeste 0 933.8 -0.4 88
2019-08-14 04:00:00 16.8 4 Sudoeste 5 Sudoeste 0 934 -0.2 88
2019-08-14 03:00:00 17.5 3 Noroeste 9 Sudeste 0 934.1 0 85
2019-08-14 02:00:00 18.2 3 Sudeste 8 Sur 0 934.2 0.4 84
2019-08-14 01:00:00 19.1 4 Sur 10 Sudeste 0 934.2 1 79
2019-08-14 00:00:00 19.9 9 Sudeste 14 Este 0 934.1 1.9 78
2019-08-13 23:00:00 20 6 Este 13 Este 0 933.8 2.4 76
2019-08-13 22:00:00 20.7 8 Este 23 Sudeste 0 933.2 2.1 72
2019-08-13 21:00:00 22 17 Sudeste 30 Sudeste 0 932.2 1.1 67
2019-08-13 20:00:00 24.8 18 Sudeste 28 Sudeste 0 931.4 -0.1 53
2019-08-13 19:00:00 26.5 13 Sudeste 29 Sudeste 0 931.1 -1.1 41
2019-08-13 18:00:00 27.4 18 Sudeste 32 Sudeste 0 931.1 -1.9 40
2019-08-13 17:00:00 27.7 18 Sudeste 32 Este 0 931.5 -2 38
2019-08-13 16:00:00 27.1 15 Sudeste 31 Este 0 932.2 -1.7 40
2019-08-13 15:00:00 25.7 15 Sudeste 26 Sudeste 0 933 -1.2 45
2019-08-13 14:00:00 23.8 14 Sudeste 26 Sudeste 0 933.5 -0.3 50
2019-08-13 13:00:00 21.8 14 Sudeste 26 Sudeste 0 933.9 0 55
2019-08-13 12:00:00 21.9 13 Sudeste 24 Sudeste 0 934.2 0.5 53
2019-08-13 11:00:00 21.9 13 Sudeste 21 Sudeste 0 933.8 0.4 55
2019-08-13 10:00:00 19.8 9 Sudeste 22 Este 0 933.9 1 62
2019-08-13 09:00:00 19.3 8 Este 14 Este 0 933.7 0.9 65
2019-08-13 08:00:00 18.7 4 Este 12 Este 0 933.4 0.4 62
2019-08-13 07:00:00 18.4 5 Este 13 Sudeste 0 932.9 -0.5 67
2019-08-13 06:00:00 17.6 5 Norte 9 Noroeste 0 932.8 -0.8 70
2019-08-13 05:00:00 18 5 Norte 9 Nordeste 0 933 -0.7 74
2019-08-13 04:00:00 18.3 4 Nordeste 9 Nordeste 0 933.4 -0.3 75
2019-08-13 03:00:00 18.4 6 Este 10 Este 0 933.6 0.2 75
2019-08-13 02:00:00 18.5 4 Este 10 Este 0 933.7 0.9 73
2019-08-13 01:00:00 18.1 5 Norte 10 Este 0 933.7 1.8 77
2019-08-13 00:00:00 19.4 4 Este 19 Este 0 933.4 2.6 76
2019-08-12 23:00:00 20 9 Sudeste 21 Este 0 932.8 2.9 73
2019-08-12 22:00:00 20.9 12 Sudeste 28 Este 0 931.9 2.5 71
2019-08-12 21:00:00 22.3 13 Este 29 Sudeste 0 930.8 1.5 64
2019-08-12 20:00:00 24.3 21 Este 34 Sudeste 0 929.9 0.5 55
2019-08-12 19:00:00 26.5 23 Sudeste 37 Sudeste 0 929.4 -0.4 44
2019-08-12 18:00:00 28.3 21 Sudeste 38 Sudeste 0 929.3 -0.9 34
2019-08-12 17:00:00 28.8 22 Sudeste 39 Sudeste 0 929.4 -1.2 31
2019-08-12 16:00:00 30.4 7 Este 19 Sudeste 0 929.8 -1.1 13
2019-08-12 15:00:00 30.4 5 Nordeste 15 Este 0 930.2 -0.9 13
2019-08-12 14:00:00 28.7 5 Este 18 Este 0 930.6 -0.3 21
2019-08-12 13:00:00 27.3 9 Este 23 Sudeste 0 930.9 0.4 26
2019-08-12 12:00:00 26.2 8 Sur 15 Sudeste 0 931.1 0.8 31
2019-08-12 11:00:00 25.5 4 Nordeste 10 Nordeste 0 930.9 1.3 29
2019-08-12 10:00:00 21.7 4 Este 7 Este 0 930.5 1.6 32
2019-08-12 09:00:00 18.5 0 Calma 6 Noroeste 0 930.3 1.5 37
2019-08-12 08:00:00 14.6 6 Norte 9 Este 0 929.6 1.1 46
2019-08-12 07:00:00 15.5 6 Este 13 Oeste 0 928.9 0 42
2019-08-12 06:00:00 16.5 11 Oeste 13 Noroeste 0 928.8 -0.3 44
2019-08-12 05:00:00 17 5 Noroeste 9 Norte 0 928.5 -1 33
2019-08-12 04:00:00 18 8 Norte 10 Norte 0 928.9 -0.7 31
2019-08-12 03:00:00 18.4 7 Noroeste 9 Norte 0 929.1 -0.5 32
2019-08-12 02:00:00 21.4 4 Sudeste 10 Sudeste 0 929.5 0.1 25
2019-08-12 01:00:00 22.3 3 Este 17 Oeste 0 929.6 0.7 22
2019-08-12 00:00:00 23.3 3 Sur 17 Oeste 0 929.6 1.2 21
2019-08-11 23:00:00 24 12 Oeste 17 Oeste 0 929.4 1.3 22
2019-08-11 22:00:00 25.9 12 Oeste 19 Oeste 0 928.9 0.7 19
2019-08-11 21:00:00 28.8 15 Oeste 25 Sudoeste 0 928.4 0.2 15
2019-08-11 20:00:00 30.2 15 Oeste 35 Oeste 0 928.1 -0.6 13
2019-08-11 19:00:00 32.4 22 Oeste 38 Oeste 0 928.2 -0.8 11
2019-08-11 18:00:00 32.9 15 Oeste 44 Oeste 0 928.2 -1.1 12
2019-08-11 17:00:00 32.4 20 Oeste 35 Oeste 0 928.7 -1 13
2019-08-11 16:00:00 31.5 18 Sudoeste 32 Oeste 0 929 -0.8 13
2019-08-11 15:00:00 31.9 19 Oeste 37 Oeste 0 929.3 -0.9 14
2019-08-11 14:00:00 31.3 22 Oeste 40 Oeste 0 929.7 -0.6 13
2019-08-11 13:00:00 30.7 17 Oeste 28 Oeste 0 929.8 -0.7 17
2019-08-11 12:00:00 28.6 11 Sudoeste 23 Sudoeste 0 930.2 -0.4 38
2019-08-11 11:00:00 25.8 7 Sudeste 13 Sudeste 0 930.3 0.1 58
2019-08-11 10:00:00 23.9 5 Este 9 Sudeste 0 930.5 0.8 71
2019-08-11 09:00:00 20.2 2 Sur 8 Noroeste 0 930.6 1 84
2019-08-11 08:00:00 17.6 0 Calma 12 Noroeste 0 930.2 0.3 87
2019-08-11 07:00:00 17.9 10 Noroeste 13 Noroeste 0 929.7 -0.3 87
2019-08-11 06:00:00 18 6 Noroeste 9 Norte 0 929.6 -0.8 84
2019-08-11 05:00:00 18.7 2 Sur 8 Noroeste 0 929.9 -1 82
2019-08-11 04:00:00 19.4 4 Norte 11 Noroeste 0 930 -1.2 80
2019-08-11 03:00:00 20.1 6 Noroeste 9 Noroeste 0 930.4 -1 79
2019-08-11 02:00:00 20.7 6 Noroeste 8 Noroeste 0 930.9 -0.5 78
2019-08-11 01:00:00 21.8 5 Oeste 5 Oeste 0 931.2 0.3 71
2019-08-11 00:00:00 23.3 3 Norte 10 Este 0 931.4 1.1 67
2019-08-10 23:00:00 24.6 6 Este 12 Este 0 931.4 1.6 64
2019-08-10 22:00:00 25.7 11 Sudeste 25 Sudeste 0 930.9 1 61
2019-08-10 21:00:00 27.6 18 Sudeste 36 Sudeste 0 930.3 0 57
2019-08-10 20:00:00 30.9 20 Sudeste 32 Sudeste 0 929.8 -1 41
2019-08-10 19:00:00 34.7 14 Sudoeste 34 Sur 0 929.9 -1.6 20
2019-08-10 18:00:00 35.1 12 Sudoeste 33 Sudoeste 0 930.3 -1.6 20
2019-08-10 17:00:00 35.1 14 Sudoeste 32 Sudoeste 0 930.8 -2 17
2019-08-10 16:00:00 34.4 14 Sudoeste 27 Sur 0 931.5 -1.4 21
2019-08-10 15:00:00 34 9 Sudoeste 24 Sudoeste 0 931.9 -1.3 22
2019-08-10 14:00:00 32.5 8 Sudoeste 26 Sur 0 932.8 -0.3 28
2019-08-10 13:00:00 31.3 8 Sudoeste 27 Sudoeste 0 932.9 -0.2 32
2019-08-10 12:00:00 29.9 12 Sudoeste 24 Noroeste 0 933.2 0.2 37
2019-08-10 11:00:00 28.3 8 Noroeste 18 Noroeste 0 933.1 0.5 42
2019-08-10 10:00:00 26.2 5 Sur 9 Sudeste 0 933.1 1.3 47
2019-08-10 09:00:00 21.1 2 Norte 6 Noroeste 0 933 1.8 59
2019-08-10 08:00:00 17.1 4 Norte 5 Noroeste 0 932.6 1.8 70
2019-08-10 07:00:00 17.8 0 Calma 4 Nordeste 0 931.8 0.9 66
2019-08-10 06:00:00 18.7 2 Este 9 Oeste 0 931.2 0.2 64
2019-08-10 05:00:00 19.2 5 Oeste 12 Oeste 0 930.8 -0.4 61
2019-08-10 04:00:00 19.6 10 Noroeste 12 Noroeste 0 930.9 -0.2 62
2019-08-10 03:00:00 21.6 9 Oeste 10 Oeste 0 931 0.3 51
2019-08-10 02:00:00 22.2 3 Norte 10 Noroeste 0 931.2 0.7 47
2019-08-10 01:00:00 23.9 2 Sur 9 Oeste 0 931.1 1.3 41
2019-08-10 00:00:00 25.1 9 Oeste 11 Oeste 0 930.7 1.4 38
2019-08-09 23:00:00 26.7 9 Noroeste 17 Noroeste 0 930.5 1.5 34
2019-08-09 22:00:00 28.6 12 Oeste 27 Oeste 0 929.8 0.7 28
2019-08-09 21:00:00 31.4 15 Oeste 34 Oeste 0 929.3 0.2 22
2019-08-09 20:00:00 33.6 21 Oeste 40 Oeste 0 929 -0.3 19
2019-08-09 19:00:00 34.6 24 Oeste 39 Oeste 0 929.1 -0.6 18
2019-08-09 18:00:00 35.2 20 Oeste 39 Oeste 0 929.1 -1 17
2019-08-09 17:00:00 34.9 23 Sudoeste 44 Oeste 0 929.3 -1.1 18
2019-08-09 16:00:00 34.9 24 Oeste 49 Oeste 0 929.7 -0.8 18
2019-08-09 15:00:00 34.2 24 Oeste 42 Sudoeste 0 930.1 -0.3 19
2019-08-09 14:00:00 33.6 21 Oeste 39 Oeste 0 930.4 0 19
2019-08-09 13:00:00 32.4 24 Oeste 37 Sudoeste 0 930.5 0.2 23
2019-08-09 12:00:00 30.7 17 Oeste 35 Oeste 0 930.4 0.4 27
2019-08-09 11:00:00 29.4 16 Noroeste 28 Noroeste 0 930.4 0.4 33
2019-08-09 10:00:00 25 3 Sudeste 8 Sur 0 930.3 0.6 35
2019-08-09 09:00:00 19.5 4 Sur 8 Norte 0 930 0.4 49
2019-08-09 08:00:00 15 4 Oeste 9 Oeste 0 930 0.5 61
2019-08-09 07:00:00 14.6 4 Noroeste 8 Norte 0 929.7 0.2 64
2019-08-09 06:00:00 15.6 3 Noroeste 7 Noroeste 0 929.6 0.1 62
2019-08-09 05:00:00 16.5 6 Noroeste 8 Noroeste 0 929.5 0 60
2019-08-09 04:00:00 17.7 5 Oeste 9 Noroeste 0 929.5 0.2 58
2019-08-09 03:00:00 18.9 5 Norte 13 Noroeste 0 929.5 0.5 54
2019-08-09 02:00:00 19.5 10 Noroeste 12 Noroeste 0 929.5 0.7 52
2019-08-09 01:00:00 21 8 Norte 10 Norte 0 929.3 1.2 44
2019-08-09 00:00:00 23.8 2 Sur 14 Sudeste 0 929 1.5 41
2019-08-08 23:00:00 26.2 6 Norte 11 Oeste 0 928.8 1.2 29
2019-08-08 22:00:00 27.3 10 Oeste 13 Oeste 0 928.1 0.3 27
2019-08-08 21:00:00 32 8 Oeste 24 Oeste 0 927.5 -0.4 20
2019-08-08 20:00:00 34.1 17 Oeste 31 Oeste 0 927.6 -0.5 17
2019-08-08 19:00:00 35 16 Oeste 35 Noroeste 0 927.8 -0.7 17
2019-08-08 18:00:00 35.3 16 Oeste 32 Oeste 0 927.9 -1.2 17
2019-08-08 17:00:00 35.1 13 Oeste 32 Sudoeste 0 928.1 -1.3 18
2019-08-08 16:00:00 34.4 14 Sudoeste 30 Oeste 0 928.5 -1.4 19
2019-08-08 15:00:00 33.8 17 Sudoeste 28 Sudoeste 0 929.1 -1 19
2019-08-08 14:00:00 32.8 10 Sudoeste 27 Sudoeste 0 929.4 -0.3 21
2019-08-08 13:00:00 31.3 19 Sudoeste 29 Sudoeste 0 929.9 0.2 22
2019-08-08 12:00:00 30 12 Oeste 25 Oeste 0 930.1 0.4 22
2019-08-08 11:00:00 28.1 10 Noroeste 22 Noroeste 0 929.7 0.3 27
2019-08-08 10:00:00 25.4 4 Nordeste 8 Norte 0 929.7 0.6 37
2019-08-08 09:00:00 21.8 2 Sudeste 5 Sudeste 0 929.7 0.6 46
2019-08-08 08:00:00 17.6 6 Sudeste 17 Noroeste 0 929.4 0.4 55
2019-08-08 07:00:00 16.9 13 Noroeste 16 Noroeste 0 929.1 0 57
2019-08-08 06:00:00 17.2 5 Oeste 14 Noroeste 0 929.1 0 55
2019-08-08 05:00:00 17.9 6 Noroeste 9 Noroeste 0 929 -0.2 51
2019-08-08 04:00:00 20 6 Oeste 10 Oeste 0 929.1 0 46
2019-08-08 03:00:00 21.7 4 Oeste 10 Sudoeste 0 929.1 0.5 41
2019-08-08 02:00:00 22.5 8 Oeste 15 Sudoeste 0 929.2 0.3 37
2019-08-08 01:00:00 24.1 4 Oeste 6 Noroeste 0 929.1 1 32
2019-08-08 00:00:00 25.5 5 Noroeste 15 Noroeste 0 928.6 1.3 30
2019-08-07 23:00:00 26.9 14 Noroeste 24 Noroeste 0 928.9 1.4 26
2019-08-07 22:00:00 27.3 10 Oeste 14 Oeste 0 928.1 1.1 24
2019-08-07 21:00:00 29.1 7 Noroeste 23 Oeste 0 927.3 0.1 21
2019-08-07 20:00:00 31.1 16 Oeste 23 Oeste 0 927.5 0.4 17
2019-08-07 19:00:00 31.8 14 Oeste 33 Oeste 0 927 -0.6 16
2019-08-07 18:00:00 32.9 18 Oeste 33 Oeste 0 927.2 -1.1 14
2019-08-07 17:00:00 34.3 17 Oeste 35 Oeste 0 927.1 -0.8 12
2019-08-07 16:00:00 34 18 Oeste 41 Oeste 0 927.6 -0.4 12
2019-08-07 15:00:00 33.6 23 Oeste 39 Oeste 0 928.3 -0.1 13
2019-08-07 14:00:00 33.6 21 Oeste 39 Sudoeste 0 927.9 -0.4 14
2019-08-07 13:00:00 31.6 19 Oeste 34 Oeste 0 928 0.2 20
2019-08-07 12:00:00 28 9 Oeste 18 Sudoeste 0 928.4 1.3 25
2019-08-07 11:00:00 26.3 10 Noroeste 18 Noroeste 0 928.3 1.5 29
2019-08-07 10:00:00 21.5 3 Noroeste 10 Sur 0 927.8 1.3 47
2019-08-07 09:00:00 17.7 2 Sudoeste 6 Sudeste 0 927.1 1 60
2019-08-07 08:00:00 16 5 Sudeste 6 Sudeste 0 926.8 0.5 74
2019-08-07 07:00:00 17 3 Sudeste 8 Oeste 0 926.5 0.3 69
2019-08-07 06:00:00 16.3 5 Noroeste 12 Noroeste 0 926.1 -0.3 77
2019-08-07 05:00:00 16.3 3 Norte 9 Noroeste 0 926.3 -0.4 78
2019-08-07 04:00:00 17.3 9 Noroeste 11 Noroeste 0 926.2 -0.8 78
2019-08-07 03:00:00 18.8 6 Noroeste 13 Noroeste 0 926.4 -0.6 78
2019-08-07 02:00:00 20.2 9 Noroeste 11 Noroeste 0 926.7 -0.1 81
2019-08-07 01:00:00 21.5 6 Norte 12 Noroeste 0 927 0.8 76
2019-08-07 00:00:00 22.8 7 Noroeste 12 Noroeste 0 927 1.4 72
2019-08-06 23:00:00 25.3 4 Noroeste 19 Sudeste 0 926.8 1.5 51
2019-08-06 22:00:00 27.8 10 Sudeste 28 Sudeste 0 926.2 0.6 47
2019-08-06 21:00:00 31.4 15 Sudeste 26 Sudoeste 0 925.6 -0.4 33
2019-08-06 20:00:00 36.3 13 Sudoeste 31 Oeste 0 925.3 -1.5 8
2019-08-06 19:00:00 36.9 15 Oeste 28 Oeste 0 925.6 -1.8 8
2019-08-06 18:00:00 36.6 18 Oeste 38 Oeste 0 926 -1.6 8
2019-08-06 17:00:00 37 18 Sudoeste 36 Oeste 0 926.8 -1.5 7
2019-08-06 16:00:00 36.6 15 Sudoeste 33 Sudoeste 0 927.4 -1.4 8
2019-08-06 15:00:00 35.9 11 Oeste 24 Sudoeste 0 927.6 -1.6 9
2019-08-06 14:00:00 34.6 15 Sudoeste 27 Sudoeste 0 928.3 -0.9 12
2019-08-06 13:00:00 33.2 12 Sudoeste 26 Oeste 0 928.8 -0.4 18
2019-08-06 12:00:00 31 12 Sudoeste 21 Sudoeste 0 929.2 0.2 31
2019-08-06 11:00:00 28.4 5 Sudeste 12 Sudeste 0 929.2 0.3 50
2019-08-06 10:00:00 25.4 4 Sudoeste 8 Sudoeste 0 929.2 0.5 61
2019-08-06 09:00:00 20.8 2 Sudeste 7 Norte 0 929 0.3 77
2019-08-06 08:00:00 17.2 4 Norte 8 Oeste 0 928.9 0.1 87
2019-08-06 07:00:00 17.8 4 Oeste 5 Noroeste 0 928.7 -0.1 88
2019-08-06 06:00:00 18.5 2 Oeste 10 Norte 0 928.7 -0.4 87
2019-08-06 05:00:00 19.5 5 Noroeste 13 Noroeste 0 928.8 -0.6 88
2019-08-06 04:00:00 20.1 9 Noroeste 12 Noroeste 0 928.8 -0.6 86
2019-08-06 03:00:00 20.6 8 Noroeste 10 Noroeste 0 929.1 -0.2 83
2019-08-06 02:00:00 21.5 3 Sudeste 11 Noroeste 0 929.4 0.2 79
2019-08-06 01:00:00 22.1 8 Noroeste 14 Noroeste 0 929.4 0.9 78
2019-08-06 00:00:00 22.8 8 Noroeste 13 Noroeste 0 929.3 1.5 73
2019-08-05 23:00:00 24.6 3 Sur 13 Sudeste 0 929.2 2.1 61
2019-08-05 22:00:00 25.8 8 Sudeste 19 Sudeste 0 928.5 1.6 58
2019-08-05 21:00:00 28.1 13 Sudeste 33 Sudeste 0 927.8 0.5 49
2019-08-05 20:00:00 30.7 23 Sudeste 35 Sudeste 0 927.1 -0.7 43
2019-08-05 19:00:00 33.7 24 Sudeste 35 Sudeste 0 926.9 -1.4 33
2019-08-05 18:00:00 36.6 14 Sur 28 Sudoeste 0 927.3 -1.9 21
2019-08-05 17:00:00 36.2 8 Sudoeste 26 Sur 0 927.8 -2.1 14
2019-08-05 16:00:00 35.1 9 Este 27 Nordeste 0 928.3 -2 19
2019-08-05 15:00:00 34 13 Sudeste 26 Sudeste 0 929.2 -1.3 24
2019-08-05 14:00:00 32.8 15 Sudeste 25 Sudeste 0 929.9 -0.5 27
2019-08-05 13:00:00 31.2 14 Sudeste 24 Sudeste 0 930.3 0.1 29
2019-08-05 12:00:00 29.1 15 Sudeste 24 Sudeste 0 930.5 0.4 38
2019-08-05 11:00:00 27.6 15 Sudeste 24 Sudeste 0 930.4 0.5 40
2019-08-05 10:00:00 25.9 4 Sudeste 8 Oeste 0 930.2 0.5 46
2019-08-05 09:00:00 21.1 4 Oeste 10 Noroeste 0 930.1 0.5 59
2019-08-05 08:00:00 17 6 Noroeste 9 Noroeste 0 929.9 0 68
2019-08-05 07:00:00 17.3 8 Norte 13 Norte 0 929.7 -0.7 62
2019-08-05 06:00:00 18.7 10 Noroeste 15 Noroeste 0 929.6 -1.1 57
2019-08-05 05:00:00 19 12 Noroeste 18 Noroeste 0 929.9 -0.9 56
2019-08-05 04:00:00 19.4 12 Noroeste 16 Noroeste 0 930.4 -0.5 57
2019-08-05 03:00:00 19.8 9 Noroeste 16 Noroeste 0 930.7 0.2 55
2019-08-05 02:00:00 20.1 9 Noroeste 12 Noroeste 0 930.8 0.6 61
2019-08-05 01:00:00 21.3 8 Noroeste 14 Noroeste 0 930.9 1.4 72
2019-08-05 00:00:00 22.6 8 Norte 13 Noroeste 0 930.5 2.2 69
2019-08-04 23:00:00 24.6 4 Noroeste 11 Nordeste 0 930.2 2.4 54
2019-08-04 22:00:00 26.4 5 Este 21 Sudeste 0 929.5 2.1 50
2019-08-04 21:00:00 28.8 16 Sudeste 30 Sudeste 0 928.3 0.6 41
2019-08-04 20:00:00 31.8 23 Sudeste 35 Sudeste 0 927.8 -0.2 30
2019-08-04 19:00:00 34.5 19 Sudeste 39 Sudeste 0 927.4 -1.2 25
2019-08-04 18:00:00 36.6 14 Sudoeste 32 Sudoeste 0 927.7 -1.3 11
2019-08-04 17:00:00 36.6 14 Sur 34 Sur 0 928 -1.4 13
2019-08-04 16:00:00 36.4 8 Sudoeste 26 Oeste 0 928.6 -1.2 16
2019-08-04 15:00:00 35.6 11 Sur 24 Sur 0 929 -0.7 19
2019-08-04 14:00:00 33.9 15 Sur 25 Sudeste 0 929.4 -0.3 22
2019-08-04 13:00:00 32.7 15 Sur 24 Sur 0 929.8 -0.3 29
2019-08-04 12:00:00 30.9 7 Sudoeste 14 Sur 0 929.7 -0.2 31
2019-08-04 11:00:00 28.2 3 Norte 10 Este 0 929.7 0 42
2019-08-04 10:00:00 25.5 4 Sudeste 8 Sudoeste 0 930.1 0.6 50
2019-08-04 09:00:00 20.9 3 Oeste 10 Norte 0 929.9 0.8 64
2019-08-04 08:00:00 17.1 8 Noroeste 12 Norte 0 929.7 0.6 76
2019-08-04 07:00:00 17.3 5 Noroeste 9 Noroeste 0 929.5 0 74
2019-08-04 06:00:00 18.1 7 Noroeste 12 Noroeste 0 929.1 -0.5 70
2019-08-04 05:00:00 18.7 9 Noroeste 15 Noroeste 0 929.1 -0.8 70
2019-08-04 04:00:00 19.3 11 Noroeste 17 Noroeste 0 929.5 -0.4 69
2019-08-04 03:00:00 19.3 8 Noroeste 11 Noroeste 0 929.6 -0.3 71
2019-08-04 02:00:00 20.3 7 Noroeste 14 Noroeste 0 929.9 0.4 68
2019-08-04 01:00:00 20.9 7 Noroeste 12 Noroeste 0 929.9 1.3 66
2019-08-04 00:00:00 22 7 Noroeste 12 Noroeste 0 929.9 2.1 62
2019-08-03 23:00:00 24.3 3 Noroeste 9 Sur 0 929.5 1.9 57
2019-08-03 22:00:00 25.8 6 Sudeste 18 Sudeste 0 928.6 1 51
2019-08-03 21:00:00 28.1 10 Sudeste 26 Sudeste 0 927.8 -0.2 45
2019-08-03 20:00:00 30.7 16 Sudeste 33 Sudeste 0 927.6 -0.6 39
2019-08-03 19:00:00 32 24 Sudeste 37 Sudeste 0 927.6 -1.4 35
2019-08-03 18:00:00 33.3 21 Sudeste 35 Sudeste 0 928 -1.7 32
2019-08-03 17:00:00 35 9 Sudeste 28 Sur 0 928.2 -1.9 24
2019-08-03 16:00:00 34.8 12 Sur 21 Sudeste 0 929 -1.5 18
2019-08-03 15:00:00 33.5 12 Sudoeste 24 Sur 0 929.7 -1.1 22
2019-08-03 14:00:00 32.6 7 Sur 23 Sur 0 930.1 -0.8 26
2019-08-03 13:00:00 31.3 10 Sudeste 22 Sudeste 0 930.5 -0.5 29
2019-08-03 12:00:00 28.9 10 Sudeste 18 Sudeste 0 930.8 -0.1 36
2019-08-03 11:00:00 26.7 11 Sudeste 17 Sudeste 0 930.9 0.3 40
2019-08-03 10:00:00 24.8 0 Calma 5 Noroeste 0 931 0.7 40
2019-08-03 09:00:00 20.3 2 Norte 5 Norte 0 930.9 0.8 62
2019-08-03 08:00:00 16.1 3 Noroeste 7 Noroeste 0 930.6 0.2 78
2019-08-03 07:00:00 15.9 7 Noroeste 10 Noroeste 0 930.3 -0.5 77
2019-08-03 06:00:00 15.9 8 Noroeste 9 Noroeste 0 930.1 -0.9 76
2019-08-03 05:00:00 15.8 6 Noroeste 9 Noroeste 0 930.4 -0.7 73
2019-08-03 04:00:00 16.3 6 Noroeste 7 Noroeste 0 930.8 -0.3 67
2019-08-03 03:00:00 17.4 4 Norte 9 Sudoeste 0 931 0.1 62
2019-08-03 02:00:00 18.5 3 Sudoeste 7 Noroeste 0 931.1 0.3 58
2019-08-03 01:00:00 19.9 6 Noroeste 12 Noroeste 0 931.1 1 53
2019-08-03 00:00:00 20.7 8 Noroeste 10 Noroeste 0 930.9 1.5 51
2019-08-02 23:00:00 22.7 6 Este 13 Este 0 930.8 1.5 42
2019-08-02 22:00:00 24 10 Este 17 Este 0 930.1 1.5 43
2019-08-02 21:00:00 26.2 12 Sudeste 26 Sudeste 0 929.4 0.8 39
2019-08-02 20:00:00 28.9 16 Sudeste 31 Sudeste 0 929.3 0.4 34
2019-08-02 19:00:00 30.5 22 Sudeste 35 Sudeste 0 928.6 -0.7 31
2019-08-02 18:00:00 32.2 23 Sudeste 43 Sudeste 0 928.6 -0.7 26
2019-08-02 17:00:00 32.8 26 Sudeste 43 Sudeste 0 928.9 -1.1 27
2019-08-02 16:00:00 33.5 23 Sudeste 36 Sudeste 0 929.3 -1 28
2019-08-02 15:00:00 33.8 13 Sur 24 Sur 0 929.3 -1.2 21
2019-08-02 14:00:00 32.8 8 Sur 17 Sudeste 0 930 -0.3 26
2019-08-02 13:00:00 30.7 7 Sudeste 17 Sudeste 0 930.3 0 32
2019-08-02 12:00:00 28.7 6 Sudeste 14 Sudeste 0 930.5 0.4 42
2019-08-02 11:00:00 26.5 4 Sudoeste 9 Noroeste 0 930.3 0.3 53
2019-08-02 10:00:00 23.8 4 Noroeste 11 Noroeste 0 930.3 0.6 64
2019-08-02 09:00:00 19.8 6 Norte 10 Norte 0 930.1 0.7 80
2019-08-02 08:00:00 16 6 Noroeste 12 Noroeste 0 930 0.8 90
2019-08-02 07:00:00 16 8 Norte 9 Norte 0 929.7 0.5 89
2019-08-02 06:00:00 17.3 5 Noroeste 12 Noroeste 0 929.4 0 90
2019-08-02 05:00:00 17.4 8 Noroeste 11 Noroeste 0 929.2 -0.4 89
2019-08-02 04:00:00 17.8 9 Noroeste 13 Noroeste 0 929.2 -0.3 87
2019-08-02 03:00:00 18.1 7 Noroeste 12 Noroeste 0 929.4 0.2 85
2019-08-02 02:00:00 19.2 5 Noroeste 7 Noroeste 0 929.6 0.8 80
2019-08-02 01:00:00 20.8 0 Calma 9 Sur 0 929.5 1.3 75
2019-08-02 00:00:00 21.6 6 Sur 11 Sur 0 929.2 2 72
2019-08-01 23:00:00 22.8 6 Sudeste 15 Sur 0 928.8 2.5 67
2019-08-01 22:00:00 24.5 7 Sudeste 21 Sur 0 928.2 2.1 60
2019-08-01 21:00:00 26.8 12 Sudeste 27 Sudeste 0 927.2 0.9 53
2019-08-01 20:00:00 29.7 19 Sudeste 30 Sudeste 0 926.3 -0.3 44
2019-08-01 19:00:00 31.2 19 Sudeste 32 Sudeste 0 926.1 -1.5 37
2019-08-01 18:00:00 33.1 14 Sudeste 34 Sur 0 926.3 -1.7 30
2019-08-01 17:00:00 33.7 8 Sudoeste 24 Sur 0 926.6 -1.8 22
2019-08-01 16:00:00 33.6 9 Sudoeste 22 Sudoeste 0 927.6 -1 23
2019-08-01 15:00:00 31.8 9 Este 18 Sudoeste 0 928 -1.1 27
2019-08-01 14:00:00 30.1 5 Sudeste 15 Sudeste 0 928.4 -1.1 32
2019-08-01 13:00:00 27.9 6 Este 13 Sur 0 928.6 -0.8 38
2019-08-01 12:00:00 25.9 6 Este 15 Sur 0 929.1 -0.2 42
2019-08-01 11:00:00 23.4 6 Este 15 Sudeste 0 929.5 0.1 58
2019-08-01 10:00:00 21.7 4 Nordeste 9 Nordeste 0 929.4 0.3 65
2019-08-01 09:00:00 17.7 6 Norte 9 Noroeste 0 929.3 0 83
2019-08-01 08:00:00 14.6 4 Norte 9 Noroeste 0 929.4 0.3 91
2019-08-01 07:00:00 13.6 6 Norte 9 Norte 0 929.1 -0.4 91
2019-08-01 06:00:00 13.7 5 Noroeste 9 Oeste 0 929.3 -0.5 89
2019-08-01 05:00:00 14.5 5 Nordeste 9 Norte 0 929.1 -0.9 87
2019-08-01 04:00:00 15.6 0 Calma 12 Sudeste 0 929.5 -1 85
2019-08-01 03:00:00 16.4 7 Sur 11 Este 0 929.8 -1.5 83
2019-08-01 02:00:00 16.5 5 Norte 8 Noroeste 0 930 -0.9 84
2019-08-01 01:00:00 17.8 4 Nordeste 14 Sudeste 0 930.5 0.1 79
2019-08-01 00:00:00 18.8 12 Sudeste 23 Sudeste 0 931.3 1.4 76
2019-07-31 23:00:00 19.5 12 Sudeste 24 Sudeste 0 930.9 1.2 75
2019-07-31 22:00:00 20.5 13 Sudeste 21 Sudeste 0 930.4 0.4 70
2019-07-31 21:00:00 22.1 12 Este 25 Este 0 929.9 -0.5 61
2019-07-31 20:00:00 23.5 16 Este 27 Este 0 929.7 -1.2 57
2019-07-31 19:00:00 23.6 15 Este 32 Este 0 930 -1.3 61
2019-07-31 18:00:00 23.7 22 Este 35 Sudeste 0 930.4 -1.2 63
2019-07-31 17:00:00 24 19 Sudeste 34 Sudeste 0 930.9 -0.6 63
2019-07-31 16:00:00 22.8 19 Este 39 Este 0 931.3 -0.6 68
2019-07-31 15:00:00 24 25 Sudeste 41 Sudeste 0 931.6 -0.8 63
2019-07-31 14:00:00 25 21 Sudeste 39 Sudeste 0 931.5 -0.4 51
2019-07-31 13:00:00 25.3 24 Sudeste 39 Sudeste 0 931.9 -0.1 47
2019-07-31 12:00:00 23.6 22 Sudeste 33 Este 0 932.4 1.6 52
2019-07-31 11:00:00 22.6 19 Sudeste 35 Sudeste 0 931.9 0.7 60
2019-07-31 10:00:00 21.6 21 Sudeste 34 Sudeste 0 932 0.2 65
2019-07-31 09:00:00 20.8 12 Este 22 Nordeste 0 930.8 -1.1 70
2019-07-31 08:00:00 19 10 Nordeste 19 Nordeste 0 931.2 -0.6 79
2019-07-31 07:00:00 17.3 6 Norte 8 Noroeste 0 931.8 0.2 82
2019-07-31 06:00:00 16.6 7 Noroeste 9 Noroeste 0 931.9 0.8 85
2019-07-31 05:00:00 17.7 6 Sudeste 20 Sudeste 0 931.8 0.6 81
2019-07-31 04:00:00 18.5 9 Sudeste 22 Este 0 931.6 0.3 78
2019-07-31 03:00:00 19.8 12 Sudeste 21 Este 0 931.1 -0.1 69
2019-07-31 02:00:00 20.5 15 Este 26 Este 0 931.2 0.3 62
2019-07-31 01:00:00 20.1 11 Sudeste 17 Sudeste 0 931.3 1.1 66
2019-07-31 00:00:00 21 12 Este 23 Este 0 931.2 1.9 60
2019-07-30 23:00:00 21.4 8 Este 23 Nordeste 0 930.9 2.3 57
2019-07-30 22:00:00 22 13 Este 29 Este 0 930.2 2.1 64
2019-07-30 21:00:00 24.2 15 Este 28 Sudeste 0 929.3 1 59
2019-07-30 20:00:00 26.4 20 Sudeste 36 Sudeste 0 928.6 0.2 51
2019-07-30 19:00:00 28.1 22 Sudeste 39 Sudeste 0 928.1 -0.3 45
2019-07-30 18:00:00 29.4 28 Sudeste 41 Sudeste 0 928.3 -0.8 41
2019-07-30 17:00:00 30 26 Sudeste 39 Sudeste 0 928.4 -1 36
2019-07-30 16:00:00 32.2 18 Sudeste 32 Sudeste 0 928.4 -1.5 29
2019-07-30 15:00:00 31.4 10 Este 22 Sudeste 0 929.1 -0.9 23
2019-07-30 14:00:00 31.1 5 Este 22 Sudeste 0 929.4 -0.6 25
2019-07-30 13:00:00 29.6 7 Sudeste 23 Sudeste 0 929.9 0.1 26
2019-07-30 12:00:00 28.2 12 Sudeste 24 Sudeste 0 930 0.9 28
2019-07-30 11:00:00 26.2 14 Sudeste 23 Sudeste 0 930 1.5 34
2019-07-30 10:00:00 23.8 15 Sudeste 22 Sudeste 0 929.8 1.8 32
2019-07-30 09:00:00 20 5 Sudeste 9 Noroeste 0 929.1 1.5 42
2019-07-30 08:00:00 15.8 6 Noroeste 12 Noroeste 0 928.5 0.9 51
2019-07-30 07:00:00 14.7 6 Oeste 10 Oeste 0 928 0.6 53
2019-07-30 06:00:00 16.1 6 Noroeste 14 Noroeste 0 927.6 0.1 50
2019-07-30 05:00:00 16.1 12 Noroeste 17 Norte 0 927.6 0.2 50
2019-07-30 04:00:00 16.9 7 Oeste 9 Noroeste 0 927.4 0 55
2019-07-30 03:00:00 18 7 Noroeste 12 Noroeste 0 927.5 0.4 57
2019-07-30 02:00:00 19.2 8 Noroeste 10 Noroeste 0 927.4 0.9 58
2019-07-30 01:00:00 21.3 8 Noroeste 12 Oeste 0 927.4 1.6 49
2019-07-30 00:00:00 24.5 4 Sudeste 16 Sur 0 927.1 1.8 41
2019-07-29 23:00:00 25.7 8 Sudoeste 14 Sudoeste 0 926.5 1.5 26
2019-07-29 22:00:00 27.4 10 Sudoeste 14 Oeste 0 925.8 0.9 23
2019-07-29 21:00:00 30.8 10 Oeste 23 Oeste 0 925.3 0.3 18
2019-07-29 20:00:00 32.5 15 Oeste 31 Oeste 0 925 -0.4 16
2019-07-29 19:00:00 33.4 15 Oeste 32 Oeste 0 924.9 -0.9 16
2019-07-29 18:00:00 33.8 14 Oeste 31 Oeste 0 925 -1.1 16
2019-07-29 17:00:00 33.7 9 Oeste 33 Sudoeste 0 925.4 -1 16
2019-07-29 16:00:00 33.2 12 Sudoeste 27 Sudoeste 0 925.8 -1 18
2019-07-29 15:00:00 32.5 10 Sudoeste 28 Sur 0 926.1 -1 19
2019-07-29 14:00:00 31.5 15 Sur 31 Sur 0 926.4 -0.6 22
2019-07-29 13:00:00 30.3 8 Oeste 23 Oeste 0 926.8 -0.2 26
2019-07-29 12:00:00 29.1 13 Sudoeste 22 Sudoeste 0 927.1 0.1 25
2019-07-29 11:00:00 26.7 9 Sudoeste 14 Sur 0 927 0.3 36
2019-07-29 10:00:00 24.7 3 Sur 6 Sur 0 927 0.6 46
2019-07-29 09:00:00 19.8 5 Noroeste 10 Noroeste 0 927 0.7 66
2019-07-29 08:00:00 15.2 6 Norte 7 Norte 0 926.7 0.4 81
2019-07-29 07:00:00 15.4 6 Noroeste 13 Noroeste 0 926.4 0 82
2019-07-29 06:00:00 15.2 9 Norte 12 Noroeste 0 926.3 -0.3 82
2019-07-29 05:00:00 15.9 9 Noroeste 13 Noroeste 0 926.3 -0.3 81
2019-07-29 04:00:00 16.2 9 Noroeste 13 Noroeste 0 926.4 -0.4 79
2019-07-29 03:00:00 16.8 10 Noroeste 14 Noroeste 0 926.6 0 77
2019-07-29 02:00:00 17.3 7 Noroeste 13 Noroeste 0 926.6 0 74
2019-07-29 01:00:00 17.9 8 Noroeste 12 Noroeste 0 926.8 1.3 71
2019-07-29 00:00:00 19 8 Noroeste 12 Noroeste 0 926.6 1.9 64
2019-07-28 23:00:00 21.1 4 Sudoeste 10 Noroeste 0 926.6 2.4 55
2019-07-28 22:00:00 22.9 6 Sudeste 27 Sudeste 0 925.5 1.7 47
2019-07-28 21:00:00 25.6 14 Sudeste 26 Sudeste 0 924.7 0.9 36
2019-07-28 20:00:00 30.3 14 Sudoeste 30 Sudoeste 0 924.2 0.1 13
2019-07-28 19:00:00 30.8 14 Sudoeste 27 Sudoeste 0 923.8 -0.9 14
2019-07-28 18:00:00 31.1 14 Sudoeste 26 Sudoeste 0 923.8 -1.4 13
2019-07-28 17:00:00 30.9 19 Sur 30 Sudoeste 0 924.1 -1.3 14
2019-07-28 16:00:00 30.5 10 Sudoeste 20 Sudoeste 0 924.7 -1.1 15
2019-07-28 15:00:00 29.5 14 Sur 32 Sudoeste 0 925.2 -0.8 18
2019-07-28 14:00:00 28.2 10 Noroeste 22 Oeste 0 925.4 -0.7 18
2019-07-28 13:00:00 26.6 12 Sudoeste 24 Noroeste 0 925.8 -0.4 23
2019-07-28 12:00:00 24.7 5 Norte 28 Norte 0 926 0 29
2019-07-28 11:00:00 22.7 19 Norte 33 Norte 0 926.1 0.5 35
2019-07-28 10:00:00 20.1 23 Norte 40 Norte 0 926.2 1 43
2019-07-28 09:00:00 16.9 24 Norte 38 Norte 0 926 1.1 55
2019-07-28 08:00:00 14.6 23 Norte 34 Noroeste 0 925.6 0.6 64
2019-07-28 07:00:00 14.3 22 Norte 30 Noroeste 0 925.2 0.1 67
2019-07-28 06:00:00 15 19 Noroeste 31 Noroeste 0 924.9 -0.1 65
2019-07-28 05:00:00 15.7 18 Noroeste 32 Norte 0 925 0.2 63
2019-07-28 04:00:00 16.4 19 Norte 28 Norte 0 925.1 0.2 63
2019-07-28 03:00:00 17.2 19 Norte 28 Norte 0 925 0.6 60
2019-07-28 02:00:00 17.7 19 Norte 28 Norte 0 924.8 1.2 59
2019-07-28 01:00:00 18.7 14 Norte 21 Norte 0 924.9 2.5 55
2019-07-28 00:00:00 20.7 11 Norte 19 Noroeste 0 924.4 3 45
2019-07-27 23:00:00 23.1 17 Noroeste 26 Noroeste 0 923.6 2.8 33
2019-07-26 12:00:00 27.3 7 Sudoeste 14 Sur 0 927.2 -0.2 33
2019-07-26 11:00:00 25.7 5 Sur 9 Sur 0 927.4 0 38
2019-07-26 10:00:00 22.2 3 Sur 8 Este 0 927.5 0.2 51
2019-07-26 09:00:00 20.1 2 Norte 6 Norte 0 927.4 0 59
2019-07-26 08:00:00 17.8 2 Oeste 10 Noroeste 0 927.4 -0.3 64
2019-07-26 07:00:00 17.5 7 Norte 12 Noroeste 0 927.3 -0.8 65
2019-07-26 06:00:00 17.3 9 Norte 14 Noroeste 0 927.4 -1.2 65
2019-07-26 05:00:00 17.9 9 Noroeste 12 Noroeste 0 927.7 -1.3 65
2019-07-26 04:00:00 18.8 8 Noroeste 14 Noroeste 0 928.1 -1.3 62
2019-07-26 03:00:00 18.7 8 Noroeste 13 Noroeste 0 928.6 -1 63
2019-07-26 02:00:00 19.8 9 Noroeste 13 Noroeste 0 929 -0.3 61
2019-07-26 01:00:00 20.5 8 Noroeste 10 Noroeste 0 929.4 0.6 62
2019-07-26 00:00:00 21.6 5 Oeste 12 Oeste 0 929.6 1.4 56
2019-07-25 23:00:00 23.5 3 Oeste 9 Noroeste 0 929.3 1.5 44
2019-07-25 22:00:00 25.9 2 Nordeste 26 Sudeste 0 928.8 1.2 36
2019-07-25 21:00:00 28.1 19 Sudeste 37 Este 0 928.2 0.4 32
2019-07-25 20:00:00 30.9 23 Sudeste 44 Sudeste 0 927.8 -0.3 28
2019-07-25 19:00:00 32.5 24 Sudeste 40 Sudeste 0 927.6 -1 28
2019-07-25 18:00:00 33.9 23 Sudeste 38 Sudeste 0 927.8 -1.4 23
2019-07-25 17:00:00 35.9 14 Sudeste 31 Sudeste 0 928.1 -1.8 16
2019-07-25 16:00:00 36.4 10 Sur 29 Sudeste 0 928.6 -1.8 14
2019-07-25 15:00:00 35.3 10 Sudeste 26 Sur 0 929.2 -1.5 14
2019-07-25 14:00:00 34.1 10 Sudoeste 30 Sur 0 929.9 -1 15
2019-07-25 13:00:00 33.2 12 Sur 22 Sur 0 930.4 -0.7 15
2019-07-25 12:00:00 31.4 12 Sudeste 20 Sudeste 0 930.7 -0.1 21
2019-07-25 11:00:00 29.2 5 Sudeste 11 Este 0 930.9 0.2 23
2019-07-25 10:00:00 26.9 2 Sudeste 9 Noroeste 0 931.1 0.5 31
2019-07-25 09:00:00 21.4 7 Noroeste 10 Noroeste 0 930.8 0.4 44
2019-07-25 08:00:00 16.9 7 Noroeste 12 Noroeste 0 930.7 0.1 57
2019-07-25 07:00:00 16.5 3 Noroeste 10 Norte 0 930.6 -0.2 59
2019-07-25 06:00:00 17.7 7 Norte 12 Noroeste 0 930.4 -0.7 56
2019-07-25 05:00:00 18.7 6 Norte 14 Noroeste 0 930.6 -0.7 53
2019-07-25 04:00:00 18.8 6 Norte 13 Noroeste 0 930.8 -0.7 53
2019-07-25 03:00:00 19.9 12 Noroeste 17 Noroeste 0 931.1 -0.5 53
2019-07-25 02:00:00 20.1 9 Noroeste 16 Noroeste 0 931.3 0 50
2019-07-25 01:00:00 20.9 11 Noroeste 14 Noroeste 0 931.5 0.7 44
2019-07-25 00:00:00 21.5 7 Noroeste 15 Noroeste 0 931.6 1.2 40
2019-07-24 23:00:00 24.4 2 Norte 11 Sudeste 0 931.3 1.4 32
2019-07-24 22:00:00 26.6 8 Sudeste 20 Sudeste 0 930.8 0.9 28
2019-07-24 21:00:00 29.2 12 Sudeste 29 Este 0 930.4 0.4 24
2019-07-24 20:00:00 31.2 18 Sudeste 32 Sudeste 0 929.9 -0.5 22
2019-07-24 19:00:00 32.6 19 Sudeste 36 Este 0 929.9 -0.9 21
2019-07-24 18:00:00 33.8 22 Este 36 Sudeste 0 930 -1.1 18
2019-07-24 17:00:00 34.9 20 Sudeste 38 Sudeste 0 930.4 -1.2 15
2019-07-24 16:00:00 35.1 21 Sudeste 37 Sudeste 0 930.8 -1.2 14
2019-07-24 15:00:00 35.4 19 Sudeste 37 Sudeste 0 931.1 -1.3 13
2019-07-24 14:00:00 34 18 Este 32 Sudeste 0 931.6 -0.8 15
2019-07-24 13:00:00 33 14 Sudeste 26 Sur 0 932 -0.4 18
2019-07-24 12:00:00 31.7 11 Sudeste 19 Sudeste 0 932.4 -0.1 19
2019-07-24 11:00:00 29.7 3 Sur 8 Este 0 932.4 0.1 22
2019-07-24 10:00:00 26.4 4 Noroeste 8 Norte 0 932.4 0.4 30
2019-07-24 09:00:00 21.4 5 Norte 8 Norte 0 932.5 0.7 47
2019-07-24 08:00:00 18.3 4 Norte 8 Norte 0 932.3 0.4 50
2019-07-24 07:00:00 19.4 6 Noroeste 11 Noroeste 0 932 -0.3 44
2019-07-24 06:00:00 19.9 10 Noroeste 13 Noroeste 0 931.8 -0.7 42
2019-07-24 05:00:00 19.5 6 Norte 10 Norte 0 931.9 -1 44
2019-07-24 04:00:00 19.7 7 Norte 14 Noroeste 0 932.3 -0.7 43
2019-07-24 03:00:00 20 8 Noroeste 12 Noroeste 0 932.5 -0.7 45
2019-07-24 02:00:00 20.7 10 Noroeste 14 Noroeste 0 932.9 0.1 42
2019-07-24 01:00:00 21.1 10 Noroeste 13 Noroeste 0 933 0.5 41
2019-07-24 00:00:00 22 10 Noroeste 16 Noroeste 0 933.2 1.4 37
2019-07-23 23:00:00 23.8 4 Nordeste 10 Noroeste 0 932.8 1.4 31
2019-07-23 22:00:00 26.4 4 Este 20 Sudeste 0 932.5 1.3 27
2019-07-23 21:00:00 28.9 13 Sudeste 32 Sudeste 0 931.8 0 24
2019-07-23 20:00:00 31.1 19 Sudeste 35 Este 0 931.4 -0.8 21
2019-07-23 19:00:00 32.9 22 Este 41 Este 0 931.2 -1.2 18
2019-07-23 18:00:00 34.6 21 Sudeste 35 Sudeste 0 931.8 -1 16
2019-07-23 17:00:00 34.4 20 Este 36 Sudeste 0 932.2 -0.8 16
2019-07-23 16:00:00 34.2 21 Este 39 Sudeste 0 932.4 -1.2 16
2019-07-23 15:00:00 34.4 18 Sudeste 33 Sudeste 0 932.8 -1.2 15
2019-07-23 14:00:00 33.7 18 Sudeste 33 Sudeste 0 933 -1.3 16
2019-07-23 13:00:00 32.7 14 Sudeste 31 Sudeste 0 933.6 -0.8 21
2019-07-23 12:00:00 30.8 12 Sudeste 24 Sudeste 0 934 -0.5 23
2019-07-23 11:00:00 29 8 Sudeste 15 Sudeste 0 934.3 -0.1 27
2019-07-23 10:00:00 26.8 4 Norte 9 Noroeste 0 934.4 0.2 30
2019-07-23 09:00:00 21.6 9 Noroeste 12 Noroeste 0 934.5 0.4 36
2019-07-23 08:00:00 16.7 7 Norte 10 Noroeste 0 934.4 0.2 50
2019-07-23 07:00:00 17.2 6 Noroeste 13 Noroeste 0 934.2 -0.3 43
2019-07-23 06:00:00 16.7 7 Noroeste 12 Noroeste 0 934.1 -0.8 52
2019-07-23 05:00:00 17.8 8 Noroeste 13 Noroeste 0 934.2 -1.2 53
2019-07-23 04:00:00 18.1 8 Noroeste 14 Noroeste 0 934.5 -1.2 56
2019-07-23 03:00:00 18.7 10 Noroeste 17 Noroeste 0 934.9 -0.8 53
2019-07-23 02:00:00 19.4 11 Noroeste 16 Noroeste 0 935.4 -0.2 49
2019-07-23 01:00:00 19.4 10 Noroeste 13 Noroeste 0 935.7 0.4 46
2019-07-23 00:00:00 20.5 5 Noroeste 12 Nordeste 0 935.7 0.6 41
2019-07-22 23:00:00 24.3 7 Nordeste 12 Este 0 935.6 0.7 28
2019-07-22 22:00:00 25.2 2 Sudeste 21 Este 0 935.3 0.2 26
2019-07-22 21:00:00 27.5 14 Este 25 Este 0 935.1 -0.3 23
2019-07-22 20:00:00 29.9 13 Este 30 Sudeste 0 934.9 -0.8 21
2019-07-22 19:00:00 30.5 22 Sudeste 33 Sudeste 0 935.1 -0.8 21
2019-07-22 18:00:00 31 19 Sudeste 36 Sudeste 0 935.4 -0.6 22
2019-07-22 17:00:00 31.8 23 Sudeste 37 Sudeste 0 935.7 -0.7 20
2019-07-22 16:00:00 31.1 19 Este 39 Este 0 935.9 -0.8 23
2019-07-22 15:00:00 32.3 19 Sudeste 38 Sudeste 0 936 -0.9 21
2019-07-22 14:00:00 31.6 21 Sudeste 36 Sudeste 0 936.4 -0.5 21
2019-07-22 13:00:00 30.5 15 Este 30 Este 0 936.7 -0.1 25
2019-07-22 12:00:00 29 18 Sudeste 31 Sudeste 0 936.9 0.3 27
2019-07-22 11:00:00 28.1 17 Sudeste 28 Este 0 936.9 0.5 29
2019-07-22 10:00:00 25.8 4 Este 8 Este 0 936.8 0.6 35
2019-07-22 09:00:00 21.2 0 Calma 4 Sudeste 0 936.6 0.5 51
2019-07-22 08:00:00 17.3 3 Norte 8 Noroeste 0 936.4 0.4 60
2019-07-22 07:00:00 16.7 6 Norte 11 Norte 0 936.2 0 63
2019-07-22 06:00:00 17.3 5 Noroeste 12 Noroeste 0 936.1 -0.5 64
2019-07-22 05:00:00 17.8 9 Noroeste 15 Noroeste 0 936 -1.2 63
2019-07-22 04:00:00 18.5 11 Noroeste 17 Noroeste 0 936.2 -1.1 59
2019-07-22 03:00:00 18 8 Noroeste 12 Noroeste 0 936.6 -0.4 65
2019-07-22 02:00:00 18.5 8 Norte 12 Noroeste 0 937.2 0.7 59
2019-07-22 01:00:00 19.6 6 Noroeste 11 Norte 0 937.3 1.6 55
2019-07-22 00:00:00 21.5 3 Sur 9 Sudeste 0 937 1.9 45
2019-07-21 23:00:00 23.1 5 Sudeste 12 Este 0 936.5 1.7 44
2019-07-21 22:00:00 24.7 6 Sudeste 17 Este 0 935.7 1.2 36
2019-07-21 21:00:00 26.9 11 Sudeste 27 Sudeste 0 935.1 0.4 32
2019-07-21 20:00:00 28.6 18 Sudeste 32 Sudeste 0 934.8 0 28
2019-07-21 19:00:00 29.5 18 Este 33 Sudeste 0 934.5 -0.5 26
2019-07-21 18:00:00 30.2 23 Este 40 Este 0 934.7 -0.5 26
2019-07-21 17:00:00 30.5 22 Este 37 Sudeste 0 934.8 -0.5 27
2019-07-21 16:00:00 30.6 21 Este 38 Sudeste 0 935 -0.4 28
2019-07-21 15:00:00 30.4 20 Este 35 Sudeste 0 935.2 -0.1 29
2019-07-21 14:00:00 29.6 17 Este 35 Este 0 935.3 0.5 37
2019-07-21 13:00:00 29.6 19 Sudeste 32 Sudeste 0 935.4 0.6 33
2019-07-21 12:00:00 28.4 18 Sudeste 33 Sudeste 0 935.3 0.9 33
2019-07-21 11:00:00 27.8 23 Sudeste 32 Sudeste 0 934.8 0.7 32
2019-07-21 10:00:00 25.9 5 Sudeste 9 Noroeste 0 934.8 1 35
2019-07-21 09:00:00 21.7 6 Noroeste 9 Noroeste 0 934.4 0.8 53
2019-07-21 08:00:00 17.7 6 Norte 10 Noroeste 0 934.1 0.7 68
2019-07-21 07:00:00 17.4 6 Norte 9 Norte 0 933.8 0.2 71
2019-07-21 06:00:00 18 7 Noroeste 11 Noroeste 0 933.6 -0.3 72
2019-07-21 05:00:00 18.4 8 Noroeste 13 Noroeste 0 933.4 -0.7 76
2019-07-21 04:00:00 18.9 9 Noroeste 13 Noroeste 0 933.6 -0.7 73
2019-07-21 03:00:00 19.6 8 Noroeste 13 Noroeste 0 933.9 -0.1 66
2019-07-21 02:00:00 20.1 8 Noroeste 10 Noroeste 0 934.1 0.7 65
2019-07-21 01:00:00 21.3 5 Nordeste 6 Norte 0 934.3 1.7 56
2019-07-21 00:00:00 22.2 3 Sur 7 Oeste 0 934 2.2 51
2019-07-20 23:00:00 23.3 3 Nordeste 10 Sudeste 0 933.4 2.2 45
2019-07-20 22:00:00 24.6 7 Este 22 Este 0 932.6 1.7 42
2019-07-20 21:00:00 26.3 11 Este 26 Sudeste 0 931.8 1.3 35
2019-07-20 20:00:00 28.1 19 Sudeste 32 Sudeste 0 931.2 0.8 35
2019-07-20 19:00:00 29.9 19 Sudeste 36 Este 0 930.9 0.5 31
2019-07-20 18:00:00 31.3 25 Este 42 Sudeste 0 930.5 0.1 27
2019-07-20 17:00:00 33.4 23 Sudeste 36 Sudeste 0 930.4 -0.3 24
2019-07-20 16:00:00 33.8 20 Sudeste 33 Sudeste 0 930.4 -0.8 24
2019-07-20 15:00:00 34.5 20 Sudeste 35 Sudeste 0 930.4 -0.9 19
2019-07-20 14:00:00 33.6 13 Sudeste 23 Sudeste 0 930.7 -0.6 19
2019-07-20 13:00:00 32.2 9 Sudeste 21 Sudeste 0 931.2 -0.1 20
2019-07-20 12:00:00 31.1 4 Nordeste 10 Sudeste 0 931.3 0.1 23
2019-07-20 11:00:00 28.4 0 Calma 12 Noroeste 0 931.3 0.3 29
2019-07-20 10:00:00 24.7 9 Noroeste 16 Noroeste 0 931.3 0.5 41
2019-07-20 09:00:00 20.8 10 Noroeste 18 Noroeste 0 931.2 0.8 53
2019-07-20 08:00:00 17.3 10 Noroeste 15 Norte 0 931 0.8 69
2019-07-20 07:00:00 16.1 11 Noroeste 15 Noroeste 0 930.8 0.5 74
2019-07-20 06:00:00 15.5 6 Noroeste 12 Norte 0 930.4 0.3 80
2019-07-20 05:00:00 15.8 9 Norte 11 Norte 0 930.2 -0.2 79
2019-07-20 04:00:00 16.9 9 Noroeste 11 Noroeste 0 930.3 -0.3 81
2019-07-20 03:00:00 17.5 7 Norte 10 Norte 0 930.1 -0.4 79
2019-07-20 02:00:00 18.3 7 Norte 11 Noroeste 0 930.4 -0.1 76
2019-07-20 01:00:00 19.1 9 Noroeste 12 Noroeste 0 930.6 0.6 72
2019-07-20 00:00:00 20.5 6 Noroeste 10 Noroeste 0 930.5 1.2 63
2019-07-19 23:00:00 22.4 5 Sudeste 13 Este 0 930.5 1.4 55
2019-07-19 22:00:00 24.1 4 Sudeste 25 Sudeste 0 930 1.1 54
2019-07-19 21:00:00 26.3 17 Sudeste 33 Sudeste 0 929.3 0.2 45
2019-07-19 20:00:00 28.8 18 Sudeste 36 Sudeste 0 929.1 -0.1 39
2019-07-19 19:00:00 30.7 19 Sudeste 35 Este 0 928.9 -0.8 38
2019-07-19 18:00:00 31.9 20 Sudeste 37 Sudeste 0 929.1 -1.4 33
2019-07-19 17:00:00 33.5 17 Sudeste 36 Sudeste 0 929.2 -1.8 27
2019-07-19 16:00:00 33.6 16 Sur 35 Sudeste 0 929.7 -1.8 21
2019-07-19 15:00:00 32.9 15 Sudeste 33 Sudeste 0 930.5 -1.1 22
2019-07-19 14:00:00 32 13 Sudeste 30 Sudeste 0 931 -0.7 20
2019-07-19 13:00:00 30.9 15 Sudeste 28 Sudeste 0 931.5 -0.1 25
2019-07-19 12:00:00 29.1 14 Sudeste 26 Sudeste 0 931.6 0.3 26
2019-07-19 11:00:00 27.6 15 Sudeste 23 Sudeste 0 931.7 0.7 29
2019-07-19 10:00:00 25.9 3 Sudeste 8 Norte 0 931.6 0.8 33
2019-07-19 09:00:00 21.6 6 Noroeste 9 Norte 0 931.3 0.7 56
2019-07-19 08:00:00 17.2 6 Norte 9 Noroeste 0 931 0.3 71
2019-07-19 07:00:00 16.7 4 Norte 9 Noroeste 0 930.8 -0.1 72
2019-07-19 06:00:00 17.4 6 Noroeste 13 Noroeste 0 930.6 -0.4 70
2019-07-19 05:00:00 17.6 9 Noroeste 12 Noroeste 0 930.7 -0.6 71
2019-07-19 04:00:00 18.2 10 Noroeste 15 Noroeste 0 930.9 -0.5 69
2019-07-19 03:00:00 18.3 7 Noroeste 12 Noroeste 0 931 -0.1 72
2019-07-19 02:00:00 18.8 8 Noroeste 11 Noroeste 0 931.3 0.7 70
2019-07-19 01:00:00 19.5 8 Noroeste 11 Noroeste 0 931.4 1.6 65
2019-07-19 00:00:00 20.8 3 Sudoeste 6 Este 0 931.1 1.8 59